Pagina principale
METAR-TAF:

METAR-TAF

Aeroporti :

Marshfield, Massachusetts, Stati Uniti

latitudine: 42-05-54N, longitudine: 070-40-20W, altezza: 3 m

Osservazione

Il bollettino è stato emesso 28 minuti fa, alle 09:55 UTC
Vento 3 kt da ovest
Temperature 10°C
Umidità 93%
Pressione 1024 hPa
Visibilità: 16.1 km
Cielo sereno

METAR: KGHG 230955Z AUTO 28003KT 10SM CLR 10/09 A3023 RMK AO2

Ora: 06:23 (10:23 UTC)


TAF: mancante

Osservazioni e previsioni meteorologiche di più di 4000 aeroporti (messaggi METAR e TAF).

Le stazioni disponibili sono rappresentate dai dischi gialli e rossi sulla carta.

Puntare il mouse per vedere il nome della stazione.

Clicca sopra per visualizzare le osservazioni e previsioni meteorologiche.

Per cambiare la mappa : fare clic sui pulsanti verdi con una croce nera per ingrandire, il pulsante verde con un trattino per diminuire, o sulla freccia verde per le mappe adiacenti.


METAR-TAF: